DEHRS EDWJ-EDWY

Flight info

Callsign DEHRS
Flight time 0h -5m
Altitude 1500
Route EDWY
Aircraft C172/L-SFG/C

Departure

Time 2026-05-05 21:54
Airport Juist Airport (EDWJ)

Arrival

Time 2026-05-05 21:48
Airport Norderney Airport (EDWY)
Time Latitude Longitude Altitude Speed Heading
2026-05-05 21:48 53.68162 7.05562 10 ft 0 kts 270°
2026-05-05 21:51 53.68148 7.05530 10 ft 10 kts 230°
2026-05-05 21:52 53.68093 7.05171 13 ft 8 kts 256°
2026-05-05 21:52 53.68062 7.05148 13 ft 6 kts 104°
2026-05-05 21:52 53.68066 7.05231 14 ft 19 kts 77°
2026-05-05 21:53 53.68141 7.05753 7 ft 70 kts 77°
2026-05-05 21:53 53.68316 7.06597 168 ft 80 kts 63°
2026-05-05 21:53 53.68621 7.07520 279 ft 95 kts 60°
2026-05-05 21:53 53.68778 7.08615 427 ft 105 kts 97°
2026-05-05 21:54 53.68789 7.09826 548 ft 104 kts 73°
2026-05-05 21:54 53.68935 7.11005 682 ft 102 kts 76°
2026-05-05 21:54 53.69096 7.12160 810 ft 101 kts 73°
2026-05-05 21:54 53.69271 7.13328 942 ft 104 kts 71°
2026-05-05 21:55 53.69458 7.14553 967 ft 112 kts 72°
2026-05-05 21:55 53.69653 7.15808 883 ft 107 kts 70°
2026-05-05 21:55 53.69865 7.16944 800 ft 97 kts 69°
2026-05-05 21:55 53.70110 7.17989 693 ft 96 kts 70°
2026-05-05 21:56 53.70308 7.19103 510 ft 105 kts 71°
2026-05-05 21:56 53.70502 7.20245 394 ft 88 kts 78°
2026-05-05 21:56 53.70594 7.21149 223 ft 74 kts 79°
2026-05-05 21:56 53.70641 7.21977 58 ft 69 kts 87°
2026-05-05 21:57 53.70675 7.22640 10 ft 41 kts 88°
2026-05-05 21:57 53.70692 7.22923 5 ft 5 kts 24°
2026-05-05 21:57 53.70718 7.22889 5 ft 5 kts 320°
2026-05-05 21:57 53.70754 7.22884 6 ft 7 kts 356°
2026-05-05 21:58 53.70790 7.22851 8 ft 9 kts 271°
2026-05-05 21:58 53.70784 7.22796 8 ft 0 kts 258°